WIOO/PNK METAR and TAF weather

Enter ICAO airport designator
Station Type Date Time Source
WIOO METAR 2020/01/20 18:00 UTC NOAA

WIOO 201800Z 07003KT 6000 SCT010 25/24 Q1012 RERA NOSIG


Station Type Date Time Source
WIOO Decoded METAR 2020/01/20 18:00 UTC NOAA

Pontianak / Supadio, Indonesia (WIOO) 00-09S 109-24E 3M
Jan 20, 2020 - 01:00 PM EST / 2020.01.20 1800 UTC
Wind: from the ENE (070 degrees) at 3 MPH (3 KT):0
Visibility: 3 mile(s):0
Sky conditions: partly cloudy
Temperature: 77 F (25 C)
Dew Point: 75 F (24 C)
Relative Humidity: 94%
Pressure (altimeter): 29.88 in. Hg (1012 hPa)
ob: WIOO 201800Z 07003KT 6000 SCT010 25/24 Q1012 RERA NOSIG
cycle: 18

Station Type Date Time Source
WIOO TAF 2014/03/26 00:51 UTC NOAA

TAF TAF WIOO 252300Z 2600/2624 10002KT 7000 SCT011
BECMG 2601/2603 08005KT 9999
TEMPO 2607/2610 15010KT 3000

Example: see airport list